This is the latest recevied weather packets stored in our database for station/object AG1T-20. If no packets are shown the sender has not sent any weather packets the latest 10 day(s).
| Time | Temp. | Humidity | Pressure | Rain* | Wind** | Luminosity | Snow |
|---|---|---|---|---|---|---|---|
| 1787674204 | 21.11° C | 56% | 1026.2 hPa | 0 mm | - | 764 W/m² | - |
| 1787673604 | 21.67° C | 55% | 1026.2 hPa | 0 mm | - | 740 W/m² | - |
| 1787673004 | 20.56° C | 59% | 1026.7 hPa | 0 mm | - | 720 W/m² | - |
| 1787672404 | 20° C | 59% | 1026.7 hPa | 0 mm | - | 697 W/m² | - |
| 1787671804 | 20° C | 58% | 1026.7 hPa | 0 mm | - | 677 W/m² | - |
| 1787671205 | 19.44° C | 61% | 1026.7 hPa | 0 mm | - | 547 W/m² | - |
| 1787670604 | 18.89° C | 61% | 1026.7 hPa | 0 mm | - | 657 W/m² | - |
| 1787670004 | 18.89° C | 63% | 1026.7 hPa | 0 mm | - | 601 W/m² | - |
| 1787669405 | 18.89° C | 61% | 1026.2 hPa | 0 mm | - | 566 W/m² | - |
| 1787668805 | 18.89° C | 58% | 1026.2 hPa | 0 mm | - | 532 W/m² | - |
| 1787668205 | 18.89° C | 59% | 1026.2 hPa | 0 mm | - | 500 W/m² | - |
| 1787667605 | 18.33° C | 62% | 1026.2 hPa | 0 mm | - | 468 W/m² | - |
| 1787667005 | 17.78° C | 64% | 1026.2 hPa | 0 mm | - | 397 W/m² | - |
| 1787666405 | 17.22° C | 66% | 1026.2 hPa | 0 mm | - | 393 W/m² | - |
| 1787665805 | 16.67° C | 69% | 1025.4 hPa | 0 mm | - | 361 W/m² | - |
| 1787665205 | 16.67° C | 70% | 1025.4 hPa | 0 mm | - | 319 W/m² | - |
| 1787664605 | 15.56° C | 73% | 1025.4 hPa | 0 mm | - | 61 W/m² | - |
| 1787664005 | 15° C | 75% | 1025.4 hPa | 0 mm | - | 37 W/m² | - |
| 1787663405 | 15° C | 73% | 1025.4 hPa | 0 mm | - | 25 W/m² | - |
| 1787662805 | 15° C | 73% | 1025.4 hPa | 0 mm | - | 10 W/m² | - |
| 1787662205 | 15° C | 73% | 1025.2 hPa | 0 mm | - | 7 W/m² | - |
| 1787661605 | 15° C | 73% | 1025.2 hPa | 0 mm | - | 2 W/m² | - |
| 1787661005 | 15.56° C | 71% | 1025.2 hPa | 0 mm | - | 0 W/m² | - |
| 1787660405 | 15.56° C | 71% | 1025.2 hPa | 0 mm | - | 0 W/m² | - |
| 1787659805 | 15° C | 73% | 1025.2 hPa | 0 mm | - | 0 W/m² | - |
* Rain latest hour (hover to see other rain measurements)
** Current wind speed in m/s (hover to see current wind gust speed)